createdAt,value
2023-04-27T00:02:02.245Z,4.17
2023-04-27T00:04:47.776Z,4.18
2023-04-27T00:07:33.285Z,4.09
2023-04-27T00:10:18.197Z,4.07
2023-04-27T00:13:03.368Z,4.11
2023-04-27T00:15:48.416Z,3.95
2023-04-27T00:18:33.279Z,3.85
2023-04-27T00:21:18.718Z,3.81
2023-04-27T00:24:04.302Z,3.79
2023-04-27T00:26:49.443Z,3.65
2023-04-27T00:29:34.797Z,3.64
2023-04-27T00:32:19.649Z,3.61
2023-04-27T00:35:05.508Z,3.68
2023-04-27T00:37:50.913Z,3.36
2023-04-27T00:40:35.855Z,3.35
2023-04-27T00:43:20.633Z,3.31
2023-04-27T00:46:06.150Z,3.22
2023-04-27T00:48:51.114Z,3.18
2023-04-27T00:51:36.147Z,3.29
2023-04-27T00:54:21.416Z,3.39
2023-04-27T00:57:06.732Z,3.55
2023-04-27T00:59:52.078Z,3.64
2023-04-27T01:02:37.348Z,3.69
2023-04-27T01:05:25.356Z,3.74
2023-04-27T01:08:10.620Z,3.73
2023-04-27T01:10:56.392Z,3.71
2023-04-27T01:13:41.981Z,3.70
2023-04-27T01:16:26.899Z,3.71
2023-04-27T01:19:12.270Z,3.77
2023-04-27T01:21:57.773Z,3.59
2023-04-27T01:24:42.926Z,3.72
2023-04-27T01:27:28.182Z,3.73
2023-04-27T01:30:13.255Z,3.76
2023-04-27T01:32:58.832Z,3.53
2023-04-27T01:35:43.935Z,3.63
2023-04-27T01:38:29.375Z,3.71
2023-04-27T01:41:14.597Z,3.70
2023-04-27T01:44:00.033Z,3.60
2023-04-27T01:46:45.552Z,3.67
2023-04-27T01:49:30.554Z,3.65
2023-04-27T01:52:16.082Z,3.39
2023-04-27T01:55:01.578Z,3.25
2023-04-27T01:57:46.843Z,3.08
2023-04-27T02:00:31.722Z,3.03
2023-04-27T02:03:16.814Z,2.99
2023-04-27T02:06:02.058Z,2.99
2023-04-27T02:08:46.860Z,2.95
2023-04-27T02:11:32.417Z,3.09
2023-04-27T02:14:17.760Z,3.00
2023-04-27T02:17:02.990Z,2.97
2023-04-27T02:19:47.865Z,2.79
2023-04-27T02:22:33.424Z,2.80
2023-04-27T02:25:19.185Z,2.73
2023-04-27T02:28:04.318Z,2.76
2023-04-27T02:30:49.985Z,2.56
2023-04-27T02:33:35.492Z,2.55
2023-04-27T02:36:20.868Z,2.47
2023-04-27T02:39:05.701Z,2.48
2023-04-27T02:41:50.918Z,2.51
2023-04-27T02:44:35.942Z,2.46
2023-04-27T02:47:21.287Z,2.24
2023-04-27T02:50:07.175Z,2.22
2023-04-27T02:52:52.108Z,2.16
2023-04-27T02:55:37.514Z,2.07
2023-04-27T02:58:22.523Z,1.99
2023-04-27T03:01:07.547Z,1.90
2023-04-27T03:03:52.947Z,1.67
2023-04-27T03:06:38.255Z,1.69
2023-04-27T03:09:23.156Z,1.75
2023-04-27T03:12:07.950Z,1.73
2023-04-27T03:14:53.490Z,1.73
2023-04-27T03:17:39.229Z,1.70
2023-04-27T03:20:24.255Z,1.67
2023-04-27T03:23:09.178Z,1.65
2023-04-27T03:25:54.577Z,1.57
2023-04-27T03:28:39.910Z,1.45
2023-04-27T03:31:24.924Z,1.37
2023-04-27T03:34:10.180Z,1.33
2023-04-27T03:36:55.601Z,1.21
2023-04-27T03:39:40.660Z,1.18
2023-04-27T03:42:25.787Z,1.20
2023-04-27T03:45:11.397Z,1.14
2023-04-27T03:47:56.388Z,0.91
2023-04-27T03:50:44.810Z,0.80
2023-04-27T03:53:29.751Z,0.80
2023-04-27T03:56:14.560Z,0.88
2023-04-27T03:58:59.877Z,1.01
2023-04-27T04:01:44.855Z,0.78
2023-04-27T04:04:30.234Z,0.86
2023-04-27T04:07:15.880Z,0.94
2023-04-27T04:10:00.978Z,1.06
2023-04-27T04:12:46.366Z,1.00
2023-04-27T04:15:31.261Z,0.84
2023-04-27T04:18:16.699Z,0.77
2023-04-27T04:21:03.067Z,0.88
2023-04-27T04:23:48.147Z,0.93
2023-04-27T04:26:33.347Z,0.73
2023-04-27T04:29:18.281Z,0.71
2023-04-27T04:32:03.169Z,0.69
2023-04-27T04:34:49.188Z,0.73
2023-04-27T04:37:35.308Z,0.78
2023-04-27T04:40:20.122Z,0.94
2023-04-27T04:43:05.528Z,0.84
2023-04-27T04:45:50.472Z,0.66
2023-04-27T04:48:35.444Z,0.69
2023-04-27T04:51:20.410Z,0.70
2023-04-27T04:54:05.384Z,0.87
2023-04-27T04:56:50.767Z,0.79
2023-04-27T04:59:35.617Z,0.85
2023-04-27T05:02:21.145Z,0.91
2023-04-27T05:05:07.123Z,1.00
2023-04-27T05:07:52.267Z,1.27
2023-04-27T05:10:37.148Z,1.33
2023-04-27T05:13:22.343Z,1.33
2023-04-27T05:16:08.004Z,1.63
2023-04-27T05:18:53.081Z,1.84
2023-04-27T05:21:38.589Z,2.02
2023-04-27T05:24:24.259Z,2.21
2023-04-27T05:27:09.702Z,2.42
2023-04-27T05:29:54.726Z,2.52
2023-04-27T05:32:40.004Z,2.64
2023-04-27T05:35:24.893Z,2.81
2023-04-27T05:38:10.149Z,2.86
2023-04-27T05:40:59.078Z,2.99
2023-04-27T05:43:44.169Z,3.09
2023-04-27T05:46:28.961Z,3.27
2023-04-27T05:49:14.583Z,3.46
2023-04-27T05:52:00.254Z,3.68
2023-04-27T05:54:50.152Z,3.87
2023-04-27T05:57:35.652Z,4.09
2023-04-27T06:00:20.699Z,4.19
2023-04-27T06:03:05.835Z,4.33
2023-04-27T06:05:57.498Z,4.57
2023-04-27T06:08:43.920Z,4.84
2023-04-27T06:11:28.833Z,5.04
2023-04-27T06:14:14.207Z,5.23
2023-04-27T06:16:59.663Z,5.52
2023-04-27T06:19:44.752Z,5.73
2023-04-27T06:22:29.782Z,5.93
2023-04-27T06:25:14.643Z,6.12
2023-04-27T06:27:59.765Z,6.31
2023-04-27T06:30:44.829Z,6.38
2023-04-27T06:33:29.857Z,6.60
2023-04-27T06:36:15.283Z,6.71
2023-04-27T06:39:00.377Z,6.64
2023-04-27T06:41:45.958Z,6.92
2023-04-27T06:44:31.149Z,6.93
2023-04-27T06:47:16.117Z,7.12
2023-04-27T06:50:01.494Z,7.11
2023-04-27T06:52:46.869Z,7.40
2023-04-27T06:55:32.302Z,7.30
2023-04-27T06:58:17.375Z,7.17
2023-04-27T07:01:02.695Z,7.35
2023-04-27T07:03:48.135Z,7.71
2023-04-27T07:06:33.546Z,7.83
2023-04-27T07:09:27.055Z,8.16
2023-04-27T07:12:13.522Z,8.10
2023-04-27T07:14:58.926Z,8.24
2023-04-27T07:17:44.114Z,8.56
2023-04-27T07:20:29.399Z,8.45
2023-04-27T07:23:14.250Z,8.58
2023-04-27T07:25:59.594Z,8.72
2023-04-27T07:28:44.808Z,8.77
2023-04-27T07:31:29.885Z,8.97
2023-04-27T07:34:15.340Z,8.50
2023-04-27T07:37:01.384Z,8.86
2023-04-27T07:39:46.353Z,9.15
2023-04-27T07:42:31.206Z,9.31
2023-04-27T07:45:16.255Z,9.20
2023-04-27T07:48:02.340Z,8.57
2023-04-27T07:50:47.991Z,9.15
2023-04-27T07:53:35.278Z,9.25
2023-04-27T07:56:20.551Z,9.57
2023-04-27T07:59:05.470Z,9.64
2023-04-27T08:01:50.970Z,9.48
2023-04-27T08:04:36.707Z,9.60
2023-04-27T08:07:22.534Z,9.91
2023-04-27T08:10:08.630Z,10.06
2023-04-27T08:12:54.464Z,9.73
2023-04-27T08:15:39.346Z,9.58
2023-04-27T08:18:25.678Z,9.74
2023-04-27T08:21:11.146Z,9.76
2023-04-27T08:23:56.481Z,9.67
2023-04-27T08:26:41.880Z,10.00
2023-04-27T08:29:28.869Z,10.11
2023-04-27T08:32:15.260Z,9.28
2023-04-27T08:35:00.509Z,10.14
2023-04-27T08:37:45.603Z,10.55
2023-04-27T08:40:30.814Z,10.72
2023-04-27T08:43:17.157Z,11.56
2023-04-27T08:46:02.988Z,11.75
2023-04-27T08:48:51.838Z,11.11
2023-04-27T08:51:37.009Z,11.40
2023-04-27T08:54:22.137Z,11.19
2023-04-27T08:57:14.612Z,11.14
2023-04-27T09:00:00.508Z,11.64
2023-04-27T09:02:46.675Z,11.49
2023-04-27T09:05:32.644Z,12.34
2023-04-27T09:08:17.585Z,11.69
2023-04-27T09:11:03.028Z,11.52
2023-04-27T09:13:48.489Z,12.62
2023-04-27T09:16:33.693Z,13.29
2023-04-27T09:19:24.569Z,12.76
2023-04-27T09:22:11.699Z,12.74
2023-04-27T09:24:56.963Z,13.48
2023-04-27T09:27:44.043Z,12.52
2023-04-27T09:30:29.785Z,13.91
2023-04-27T09:33:14.969Z,12.70
2023-04-27T09:36:04.949Z,12.23
2023-04-27T09:38:52.132Z,11.41
2023-04-27T09:41:37.267Z,11.02
2023-04-27T09:44:22.848Z,10.17
2023-04-27T09:47:09.303Z,10.76
2023-04-27T09:49:54.449Z,10.79
2023-04-27T09:52:39.623Z,11.36
2023-04-27T09:55:30.456Z,10.89
2023-04-27T09:58:27.629Z,11.56
2023-04-27T10:01:31.960Z,11.49
2023-04-27T10:04:38.916Z,12.00
2023-04-27T10:07:27.025Z,12.64
2023-04-27T10:10:16.966Z,12.88
2023-04-27T10:13:02.191Z,12.82
2023-04-27T10:15:47.355Z,13.14
2023-04-27T10:18:32.693Z,13.38
2023-04-27T10:21:18.287Z,13.67
2023-04-27T10:24:08.202Z,13.12
2023-04-27T10:26:53.249Z,14.20
2023-04-27T10:29:40.695Z,14.25
2023-04-27T10:32:26.506Z,13.77
2023-04-27T10:35:12.209Z,14.51
2023-04-27T10:38:08.856Z,14.31
2023-04-27T10:40:59.831Z,13.76
2023-04-27T10:43:45.283Z,12.41
2023-04-27T10:46:30.234Z,11.77
2023-04-27T10:49:16.396Z,12.24
2023-04-27T10:52:02.056Z,12.44
2023-04-27T10:54:47.155Z,12.69
2023-04-27T10:57:32.479Z,13.28
2023-04-27T11:00:26.152Z,13.65
2023-04-27T11:03:14.779Z,13.49
2023-04-27T11:06:05.014Z,13.38
2023-04-27T11:08:50.088Z,12.57
2023-04-27T11:11:35.236Z,12.17
2023-04-27T11:14:20.913Z,11.69
2023-04-27T11:17:06.720Z,11.66
2023-04-27T11:19:51.854Z,12.14
2023-04-27T11:22:44.988Z,11.41
2023-04-27T11:25:30.221Z,11.66
2023-04-27T11:28:25.004Z,12.15
2023-04-27T11:31:10.806Z,12.66
2023-04-27T11:33:56.450Z,12.62
2023-04-27T11:36:41.856Z,12.08
2023-04-27T11:39:28.721Z,12.57
2023-04-27T11:42:18.404Z,12.83
2023-04-27T11:45:05.831Z,13.14
2023-04-27T11:47:51.472Z,12.85
2023-04-27T11:50:36.718Z,12.52
2023-04-27T11:53:39.307Z,13.09
2023-04-27T11:56:33.627Z,13.82
2023-04-27T11:59:20.734Z,14.58
2023-04-27T12:02:06.758Z,15.00
2023-04-27T12:04:52.371Z,13.73
2023-04-27T12:07:38.263Z,15.09
2023-04-27T12:10:24.708Z,14.82
2023-04-27T12:13:09.779Z,14.80
2023-04-27T12:15:55.152Z,14.73
2023-04-27T12:18:40.510Z,14.71
2023-04-27T12:21:25.418Z,14.48
2023-04-27T12:24:11.104Z,15.44
2023-04-27T12:26:56.599Z,15.83
2023-04-27T12:29:41.951Z,14.48
2023-04-27T12:32:27.054Z,15.88
2023-04-27T12:35:12.484Z,14.97
2023-04-27T12:37:57.579Z,14.79
2023-04-27T12:40:42.514Z,15.21
2023-04-27T12:43:28.099Z,14.95
2023-04-27T12:46:13.149Z,16.11
2023-04-27T12:48:58.431Z,15.17
2023-04-27T12:51:43.311Z,15.90
2023-04-27T12:54:28.718Z,16.60
2023-04-27T12:57:14.126Z,17.15
2023-04-27T13:00:01.003Z,17.18
2023-04-27T13:02:47.030Z,17.70
2023-04-27T13:05:32.502Z,18.85
2023-04-27T13:08:17.704Z,19.30
2023-04-27T13:11:02.820Z,18.95
2023-04-27T13:13:48.181Z,18.57
2023-04-27T13:16:33.221Z,17.12
2023-04-27T13:19:18.409Z,17.76
2023-04-27T13:22:03.820Z,18.55
2023-04-27T13:24:49.180Z,16.40
2023-04-27T13:27:34.470Z,16.17
2023-04-27T13:30:19.876Z,16.56
2023-04-27T13:33:21.023Z,17.25
2023-04-27T13:36:07.999Z,17.42
2023-04-27T13:38:53.106Z,17.58
2023-04-27T13:41:38.343Z,17.43
2023-04-27T13:44:23.205Z,15.79
2023-04-27T13:47:08.168Z,15.60
2023-04-27T13:49:53.646Z,16.25
2023-04-27T13:52:40.831Z,15.27
2023-04-27T13:55:26.184Z,15.91
2023-04-27T13:58:11.838Z,15.77
2023-04-27T14:00:57.968Z,15.45
2023-04-27T14:03:43.883Z,15.74
2023-04-27T14:06:28.990Z,15.74
2023-04-27T14:09:15.681Z,15.22
2023-04-27T14:12:01.339Z,15.91
2023-04-27T14:14:46.514Z,15.34
2023-04-27T14:17:31.834Z,15.61
2023-04-27T14:20:17.257Z,14.86
2023-04-27T14:23:04.289Z,14.55
2023-04-27T14:25:49.587Z,14.67
2023-04-27T14:28:35.322Z,15.04
2023-04-27T14:31:21.294Z,15.15
2023-04-27T14:34:07.792Z,15.40
2023-04-27T14:36:52.930Z,15.44
2023-04-27T14:39:38.339Z,15.42
2023-04-27T14:42:23.501Z,15.34
2023-04-27T14:45:09.100Z,15.43
2023-04-27T14:47:54.866Z,15.24
2023-04-27T14:50:40.552Z,14.70
2023-04-27T14:53:25.991Z,14.43
2023-04-27T14:56:11.521Z,14.41
2023-04-27T14:58:57.413Z,14.27
2023-04-27T15:01:43.314Z,14.34
2023-04-27T15:04:32.383Z,14.93
2023-04-27T15:07:17.752Z,14.78
2023-04-27T15:10:03.171Z,15.00
2023-04-27T15:12:48.865Z,14.43
2023-04-27T15:15:34.459Z,14.52
2023-04-27T15:18:19.497Z,14.99
2023-04-27T15:21:04.923Z,15.21
2023-04-27T15:23:50.329Z,14.22
2023-04-27T15:26:36.194Z,14.67
2023-04-27T15:29:21.668Z,14.19
2023-04-27T15:32:07.033Z,14.45
2023-04-27T15:34:52.564Z,14.76
2023-04-27T15:37:37.588Z,14.54
2023-04-27T15:40:22.681Z,14.54
2023-04-27T15:43:07.809Z,14.36
2023-04-27T15:45:53.727Z,14.28
2023-04-27T15:48:39.034Z,13.96
2023-04-27T15:51:25.070Z,14.25
2023-04-27T15:54:10.662Z,13.93
2023-04-27T15:56:56.825Z,13.84
2023-04-27T15:59:42.256Z,13.99
2023-04-27T16:02:27.749Z,14.01
2023-04-27T16:05:13.795Z,13.71
2023-04-27T16:07:58.907Z,13.89
2023-04-27T16:10:45.142Z,13.59
2023-04-27T16:13:30.319Z,13.37
2023-04-27T16:16:16.165Z,13.50
2023-04-27T16:19:02.773Z,13.70
2023-04-27T16:21:48.422Z,13.32
2023-04-27T16:24:35.097Z,13.05
2023-04-27T16:27:20.638Z,13.19
2023-04-27T16:30:06.756Z,13.04
2023-04-27T16:32:52.611Z,13.21
2023-04-27T16:35:37.886Z,13.38
2023-04-27T16:38:23.287Z,13.32
2023-04-27T16:41:08.133Z,13.01
2023-04-27T16:43:54.219Z,12.83
2023-04-27T16:46:40.097Z,12.92
2023-04-27T16:49:25.130Z,13.03
2023-04-27T16:52:10.097Z,12.97
2023-04-27T16:54:55.188Z,13.20
2023-04-27T16:57:40.646Z,13.33
2023-04-27T17:00:26.328Z,13.11
2023-04-27T17:03:11.466Z,13.34
2023-04-27T17:05:57.004Z,13.35
2023-04-27T17:08:42.510Z,13.24
2023-04-27T17:11:27.905Z,13.07
2023-04-27T17:14:13.132Z,12.87
2023-04-27T17:16:58.215Z,12.86
2023-04-27T17:19:43.183Z,12.90
2023-04-27T17:22:28.556Z,12.93
2023-04-27T17:25:13.843Z,12.96
2023-04-27T17:28:01.162Z,12.95
2023-04-27T17:30:46.887Z,12.55
2023-04-27T17:33:32.184Z,12.77
2023-04-27T17:36:17.529Z,12.55
2023-04-27T17:39:02.562Z,12.60
2023-04-27T17:41:47.599Z,12.53
2023-04-27T17:44:32.878Z,12.32
2023-04-27T17:47:18.006Z,12.42
2023-04-27T17:50:03.620Z,12.38
2023-04-27T17:52:49.045Z,12.37
2023-04-27T17:55:34.539Z,12.24
2023-04-27T17:58:19.978Z,12.20
2023-04-27T18:01:06.819Z,12.26
2023-04-27T18:03:52.155Z,12.14
2023-04-27T18:06:37.723Z,12.13
2023-04-27T18:09:22.484Z,12.23
2023-04-27T18:12:07.424Z,12.26
2023-04-27T18:14:52.308Z,12.25
2023-04-27T18:17:37.320Z,12.27
2023-04-27T18:20:23.475Z,12.17
2023-04-27T18:23:08.388Z,12.01
2023-04-27T18:25:58.343Z,11.90
2023-04-27T18:28:43.932Z,11.89
2023-04-27T18:31:29.332Z,11.90
2023-04-27T18:34:14.869Z,11.76
2023-04-27T18:37:00.125Z,11.66
2023-04-27T18:39:45.196Z,11.50
2023-04-27T18:42:30.166Z,11.37
2023-04-27T18:45:15.729Z,11.39
2023-04-27T18:48:00.987Z,11.41
2023-04-27T18:50:46.448Z,11.30
2023-04-27T18:53:32.007Z,11.28
2023-04-27T18:56:16.868Z,11.41
2023-04-27T18:59:02.170Z,11.48
2023-04-27T19:01:47.683Z,11.34
2023-04-27T19:04:33.636Z,11.24
2023-04-27T19:07:18.990Z,11.04
2023-04-27T19:10:04.517Z,11.04
2023-04-27T19:12:49.928Z,10.86
2023-04-27T19:15:35.317Z,10.85
2023-04-27T19:18:20.728Z,10.87
2023-04-27T19:21:06.106Z,10.74
2023-04-27T19:23:52.554Z,10.65
2023-04-27T19:26:38.604Z,10.55
2023-04-27T19:29:25.024Z,10.70
2023-04-27T19:32:10.201Z,10.51
2023-04-27T19:34:56.792Z,10.42
2023-04-27T19:37:41.933Z,10.43
2023-04-27T19:40:26.835Z,10.38
2023-04-27T19:43:12.161Z,10.38
2023-04-27T19:45:57.694Z,10.37
2023-04-27T19:48:43.152Z,10.27
2023-04-27T19:51:28.425Z,10.14
2023-04-27T19:54:13.956Z,10.11
2023-04-27T19:56:59.270Z,10.09
2023-04-27T19:59:44.578Z,9.93
2023-04-27T20:02:29.981Z,10.04
2023-04-27T20:05:15.425Z,10.09
2023-04-27T20:08:01.245Z,10.00
2023-04-27T20:10:46.444Z,9.93
2023-04-27T20:13:31.822Z,10.00
2023-04-27T20:16:16.818Z,10.02
2023-04-27T20:19:02.230Z,10.04
2023-04-27T20:21:47.457Z,9.96
2023-04-27T20:24:32.898Z,9.73
2023-04-27T20:27:18.205Z,9.76
2023-04-27T20:30:04.179Z,9.78
2023-04-27T20:32:49.610Z,9.84
2023-04-27T20:35:35.075Z,9.82
2023-04-27T20:38:20.534Z,9.80
2023-04-27T20:41:05.724Z,9.73
2023-04-27T20:43:51.134Z,9.80
2023-04-27T20:46:36.589Z,9.74
2023-04-27T20:49:31.745Z,9.79
2023-04-27T20:52:20.090Z,9.87
2023-04-27T20:55:05.919Z,9.87
2023-04-27T20:57:51.193Z,9.94
2023-04-27T21:00:36.754Z,9.92
2023-04-27T21:03:22.288Z,9.92
2023-04-27T21:06:07.822Z,9.88
2023-04-27T21:08:53.144Z,9.90
2023-04-27T21:11:37.958Z,9.77
2023-04-27T21:14:22.868Z,9.78
2023-04-27T21:17:08.306Z,9.75
2023-04-27T21:19:54.006Z,9.74
2023-04-27T21:22:39.413Z,9.73
2023-04-27T21:25:24.277Z,9.70
2023-04-27T21:28:09.849Z,9.77
2023-04-27T21:30:54.753Z,9.70
2023-04-27T21:33:40.128Z,9.60
2023-04-27T21:36:25.493Z,9.65
2023-04-27T21:39:10.826Z,9.75
2023-04-27T21:41:56.312Z,9.70
2023-04-27T21:44:41.171Z,9.66
2023-04-27T21:47:26.159Z,9.69
2023-04-27T21:50:11.471Z,9.67
2023-04-27T21:52:56.850Z,9.65
2023-04-27T21:55:42.170Z,9.50
2023-04-27T21:58:27.477Z,9.52
2023-04-27T22:01:12.872Z,9.61
2023-04-27T22:03:58.251Z,9.70
2023-04-27T22:06:44.261Z,9.62
2023-04-27T22:09:29.345Z,9.62
2023-04-27T22:12:14.483Z,9.68
2023-04-27T22:14:59.704Z,9.62
2023-04-27T22:17:45.153Z,9.68
2023-04-27T22:20:30.426Z,9.64
2023-04-27T22:23:15.921Z,9.61
2023-04-27T22:26:01.273Z,9.59
2023-04-27T22:28:46.613Z,9.58
2023-04-27T22:31:31.737Z,9.53
2023-04-27T22:34:17.611Z,9.64
2023-04-27T22:37:03.097Z,9.56
2023-04-27T22:39:48.048Z,9.61
2023-04-27T22:42:33.366Z,9.57
2023-04-27T22:45:18.851Z,9.62
2023-04-27T22:48:04.111Z,9.61
2023-04-27T22:50:49.389Z,9.53
2023-04-27T22:53:34.779Z,9.58
2023-04-27T22:56:20.595Z,9.42
2023-04-27T22:59:05.931Z,9.41
2023-04-27T23:01:50.975Z,9.43
2023-04-27T23:04:36.092Z,9.48
2023-04-27T23:07:20.961Z,9.44
2023-04-27T23:10:06.732Z,9.39
2023-04-27T23:12:52.208Z,9.48
2023-04-27T23:15:37.824Z,9.50
2023-04-27T23:18:23.065Z,9.45
2023-04-27T23:21:08.004Z,9.42
2023-04-27T23:23:53.719Z,9.30
2023-04-27T23:26:39.230Z,9.36
2023-04-27T23:29:24.328Z,9.34
2023-04-27T23:32:09.162Z,9.41
2023-04-27T23:34:54.081Z,9.39
2023-04-27T23:37:39.275Z,9.47
2023-04-27T23:40:24.258Z,9.44
2023-04-27T23:43:09.744Z,9.36
2023-04-27T23:45:55.282Z,9.34
2023-04-27T23:48:40.558Z,9.38
2023-04-27T23:51:25.557Z,9.36
2023-04-27T23:54:10.883Z,9.41
2023-04-27T23:56:55.853Z,9.45
2023-04-27T23:59:41.305Z,9.43
